Terminal Aerodrome Forecast
Issued by NWS Boston, MA

Home | Current Version | Previous Version | Text Only | Print | Product List | Glossary On
Versions: 1 2 3 4 5 6 7 8 9 10 11 12 13 14 15 16 17 18
000
FTUS41 KBOX 251735
TAFORH
TAF
KORH 251735Z 2518/2618 11012KT 1SM -RA BR OVC004
      TEMPO 2518/2522 1/4SM -RA FG OVC002
     FM252300 12007KT 1 1/2SM -SHRA BR OVC003
     FM260400 15005KT 1/4SM FG OVC003
     FM260800 21004KT 1/4SM FG OVC003
     FM261300 26009KT P6SM BKN008
     FM261600 27013G20KT P6SM SCT070=

USA.gov is the U.S. government's official web portal to all federal, state and local government web resources and services.